Time;durP1;ratioP1;P1;durP2;ratioP2;P2;SDS_P1;SDS_P2;PMS_P1;PMS_P2;Temp;Humidity;BMP_temperature;BMP_pressure;BME280_temperature;BME280_humidity;BME280_pressure;Samples;Min_cycle;Max_cycle;Signal;HPM_P1;HPM_P2
2022/11/15 00:00:12;;;;;;;;;;;10.70;99.90;;;;;;7333501;19;110117;-71
2022/11/15 00:02:39;;;;;;;;;;;10.70;99.90;;;;;;7337679;19;109057;-70
2022/11/15 00:05:06;;;;;;;;;;;10.80;99.90;;;;;;7337077;19;109666;-71
2022/11/15 00:07:33;;;;;;;;;;;10.80;99.90;;;;;;7335388;19;110274;-71
2022/11/15 00:10:20;;;;;;;;;;;10.80;99.90;;;;;;7337934;19;109789;-71
2022/11/15 00:12:47;;;;;;;;;;;10.80;99.90;;;;;;7333348;19;109251;-71
2022/11/15 00:15:14;;;;;;;;;;;10.80;99.90;;;;;;7340240;19;112480;-71
2022/11/15 00:17:40;;;;;;;;;;;10.90;99.90;;;;;;7335419;19;109881;-71
2022/11/15 00:20:08;;;;;;;;;;;10.90;99.90;;;;;;7335319;19;110438;-71
2022/11/15 00:22:34;;;;;;;;;;;10.90;99.90;;;;;;7333904;19;108947;-71
2022/11/15 00:25:05;;;;;;;;;;;11.00;99.90;;;;;;7336361;19;120526;-71
2022/11/15 00:27:32;;;;;;;;;;;11.00;99.90;;;;;;7334170;19;111029;-71
2022/11/15 00:29:59;;;;;;;;;;;11.00;99.90;;;;;;7336134;19;108594;-71
2022/11/15 00:32:26;;;;;;;;;;;11.00;99.90;;;;;;7334869;19;110646;-71
2022/11/15 00:34:52;;;;;;;;;;;11.10;99.90;;;;;;7336555;19;113464;-71
2022/11/15 00:37:19;;;;;;;;;;;11.10;99.90;;;;;;7338073;19;108656;-71
2022/11/15 00:39:46;;;;;;;;;;;11.10;99.90;;;;;;7334300;19;110335;-71
2022/11/15 00:42:13;;;;;;;;;;;11.10;99.90;;;;;;7333667;19;109008;-70
2022/11/15 00:44:40;;;;;;;;;;;11.10;99.90;;;;;;7333201;19;114812;-71
2022/11/15 00:47:07;;;;;;;;;;;11.10;99.90;;;;;;7336596;19;109640;-71
2022/11/15 00:49:34;;;;;;;;;;;11.10;99.90;;;;;;7333348;19;108559;-71
2022/11/15 00:52:00;;;;;;;;;;;11.10;99.90;;;;;;7342625;19;109291;-71
2022/11/15 00:54:27;;;;;;;;;;;11.10;99.90;;;;;;7339638;19;111281;-71
2022/11/15 00:56:54;;;;;;;;;;;11.10;99.90;;;;;;7342314;19;109442;-71
2022/11/15 00:59:21;;;;;;;;;;;11.10;99.90;;;;;;7346551;19;109207;-71
2022/11/15 01:01:48;;;;;;;;;;;11.20;99.90;;;;;;7339413;19;109361;-71
2022/11/15 01:04:14;;;;;;;;;;;11.20;99.90;;;;;;7341548;19;109121;-71
2022/11/15 01:06:41;;;;;;;;;;;11.30;99.90;;;;;;7339454;19;110359;-71
2022/11/15 01:09:08;;;;;;;;;;;11.30;99.90;;;;;;7339992;19;110592;-71
2022/11/15 01:11:35;;;;;;;;;;;11.30;99.90;;;;;;7341212;19;112611;-71
2022/11/15 01:14:02;;;;;;;;;;;11.40;99.90;;;;;;7340287;19;110273;-71
2022/11/15 01:16:29;;;;;;;;;;;11.40;99.90;;;;;;7340854;19;109507;-71
2022/11/15 01:18:56;;;;;;;;;;;11.40;99.90;;;;;;7341662;19;109694;-71
2022/11/15 01:21:22;;;;;;;;;;;11.40;99.90;;;;;;7346204;19;110601;-71
2022/11/15 01:23:52;;;;;;;;;;;11.40;99.90;;;;;;7338645;19;110193;-71
2022/11/15 01:26:19;;;;;;;;;;;11.50;99.90;;;;;;7339897;19;110170;-71
2022/11/15 01:28:46;;;;;;;;;;;11.50;99.90;;;;;;7338864;19;108701;-71
2022/11/15 01:31:15;;;;;;;;;;;11.50;99.90;;;;;;7341851;19;109614;-71
2022/11/15 01:33:41;;;;;;;;;;;11.50;99.90;;;;;;7339911;19;110579;-71
2022/11/15 01:36:13;;;;;;;;;;;11.60;99.90;;;;;;7340364;19;108478;-71
2022/11/15 01:38:40;;;;;;;;;;;11.60;99.90;;;;;;7339423;19;113673;-71
2022/11/15 01:41:13;;;;;;;;;;;11.60;99.90;;;;;;7344180;19;109453;-71
2022/11/15 01:43:40;;;;;;;;;;;11.60;99.90;;;;;;7337687;19;110467;-71
2022/11/15 01:46:26;;;;;;;;;;;11.60;99.90;;;;;;7340264;19;110295;-71
2022/11/15 01:48:54;;;;;;;;;;;11.70;99.90;;;;;;7340940;19;109021;-71
2022/11/15 01:51:22;;;;;;;;;;;11.70;99.90;;;;;;7338951;19;108630;-71
2022/11/15 01:53:51;;;;;;;;;;;11.70;99.90;;;;;;7338673;19;110323;-72
2022/11/15 01:56:21;;;;;;;;;;;11.70;99.90;;;;;;7339318;19;109626;-71
2022/11/15 01:58:48;;;;;;;;;;;11.80;99.90;;;;;;7339013;19;108651;-71
2022/11/15 02:01:15;;;;;;;;;;;11.80;99.90;;;;;;7336987;19;110295;-71
2022/11/15 02:03:49;;;;;;;;;;;11.90;99.90;;;;;;7343730;19;109016;-71
2022/11/15 02:06:16;;;;;;;;;;;11.90;99.90;;;;;;7338623;19;109413;-71
2022/11/15 02:08:43;;;;;;;;;;;11.90;99.90;;;;;;7337272;19;108673;-71
2022/11/15 02:11:10;;;;;;;;;;;11.90;99.90;;;;;;7340121;19;110169;-71
2022/11/15 02:13:37;;;;;;;;;;;11.90;99.90;;;;;;7338566;19;110745;-71
2022/11/15 02:16:16;;;;;;;;;;;12.00;99.90;;;;;;7340130;19;109321;-71
2022/11/15 02:18:51;;;;;;;;;;;12.00;99.90;;;;;;7339544;19;109132;-71
2022/11/15 02:21:30;;;;;;;;;;;12.00;99.90;;;;;;7336545;19;111257;-71
2022/11/15 02:24:03;;;;;;;;;;;12.10;99.90;;;;;;7338615;19;109040;-71
2022/11/15 02:26:36;;;;;;;;;;;12.10;99.90;;;;;;7344071;19;108255;-71
2022/11/15 02:29:08;;;;;;;;;;;12.10;99.90;;;;;;7339070;19;108389;-71
2022/11/15 02:31:49;;;;;;;;;;;12.10;99.90;;;;;;7337774;19;113676;-71
2022/11/15 02:34:41;;;;;;;;;;;12.20;99.90;;;;;;7337936;19;110370;-72
2022/11/15 02:37:10;;;;;;;;;;;12.20;99.90;;;;;;7337884;19;109227;-71
2022/11/15 02:39:50;;;;;;;;;;;12.20;99.90;;;;;;7340479;19;109566;-71
2022/11/15 02:45:28;;;;;;;;;;;12.20;99.90;;;;;;7341047;19;109086;-71
2022/11/15 02:47:56;;;;;;;;;;;12.30;99.90;;;;;;7336784;19;109244;-71
2022/11/15 02:50:25;;;;;;;;;;;12.30;99.90;;;;;;7342263;19;110332;-71
2022/11/15 02:52:52;;;;;;;;;;;12.30;99.90;;;;;;7339289;19;109217;-71
2022/11/15 02:55:32;;;;;;;;;;;12.30;99.90;;;;;;7340731;19;110641;-71
2022/11/15 02:58:21;;;;;;;;;;;12.40;99.90;;;;;;7337719;19;109068;-72
2022/11/15 03:01:00;;;;;;;;;;;12.40;99.90;;;;;;7337419;19;109218;-71
2022/11/15 03:03:42;;;;;;;;;;;12.40;99.90;;;;;;7335325;19;111355;-71
2022/11/15 03:06:18;;;;;;;;;;;12.40;99.90;;;;;;7337163;19;109226;-72
2022/11/15 03:09:06;;;;;;;;;;;12.40;99.90;;;;;;7337787;19;109507;-72
2022/11/15 03:11:35;;;;;;;;;;;12.50;99.90;;;;;;7334899;19;109192;-72
2022/11/15 03:14:12;;;;;;;;;;;12.40;99.90;;;;;;7340050;19;110310;-72
2022/11/15 03:16:54;;;;;;;;;;;12.50;99.90;;;;;;7335588;19;110395;-72
2022/11/15 03:19:40;;;;;;;;;;;12.40;99.90;;;;;;7334435;19;111203;-71
2022/11/15 03:22:09;;;;;;;;;;;12.40;99.90;;;;;;7337027;19;109225;-72
2022/11/15 03:24:37;;;;;;;;;;;12.40;99.90;;;;;;7335791;19;110594;-71
2022/11/15 03:27:06;;;;;;;;;;;12.40;99.90;;;;;;7338474;19;108416;-71
2022/11/15 03:29:35;;;;;;;;;;;12.40;99.90;;;;;;7335026;19;108649;-71
2022/11/15 03:32:05;;;;;;;;;;;12.40;99.90;;;;;;7337303;19;110575;-71
2022/11/15 03:34:35;;;;;;;;;;;12.40;99.90;;;;;;7337639;19;109680;-71
2022/11/15 03:37:02;;;;;;;;;;;12.50;99.90;;;;;;7340717;19;113175;-71
2022/11/15 03:39:29;;;;;;;;;;;12.50;99.90;;;;;;7337243;19;108998;-71
2022/11/15 03:42:15;;;;;;;;;;;12.50;99.90;;;;;;7336954;19;109614;-71
2022/11/15 03:44:46;;;;;;;;;;;12.50;99.90;;;;;;7334856;19;110201;-71
2022/11/15 03:47:21;;;;;;;;;;;12.50;99.90;;;;;;7337741;19;110080;-71
2022/11/15 03:49:58;;;;;;;;;;;12.50;99.90;;;;;;7336474;19;109714;-71
2022/11/15 03:52:25;;;;;;;;;;;12.50;99.90;;;;;;7335827;19;113535;-72
2022/11/15 03:54:55;;;;;;;;;;;12.50;99.90;;;;;;7334926;19;108883;-71
2022/11/15 03:57:22;;;;;;;;;;;12.50;99.90;;;;;;7343149;19;109622;-71
2022/11/15 03:59:52;;;;;;;;;;;12.50;99.90;;;;;;7333743;19;109645;-67
2022/11/15 04:02:19;;;;;;;;;;;12.50;99.90;;;;;;7333337;19;109203;-67
2022/11/15 04:04:46;;;;;;;;;;;12.50;99.90;;;;;;7334241;19;109339;-67
2022/11/15 04:07:12;;;;;;;;;;;12.50;99.90;;;;;;7336521;19;108475;-68
2022/11/15 04:12:31;;;;;;;;;;;12.50;99.90;;;;;;7335423;19;110620;-67
2022/11/15 04:15:08;;;;;;;;;;;12.40;99.90;;;;;;7336081;19;109450;-67
2022/11/15 04:17:36;;;;;;;;;;;12.40;99.90;;;;;;7334586;19;111291;-67
2022/11/15 04:25:56;;;;;;;;;;;12.40;99.90;;;;;;7335122;19;109098;-67
2022/11/15 04:28:23;;;;;;;;;;;12.50;99.90;;;;;;7335325;19;108448;-68
2022/11/15 04:30:50;;;;;;;;;;;12.50;99.90;;;;;;7333620;19;115291;-67
2022/11/15 04:33:17;;;;;;;;;;;12.50;99.90;;;;;;7334058;19;109586;-67
2022/11/15 04:37:11;;;;;;;;;;;12.50;99.90;;;;;;7333434;19;109557;-68
2022/11/15 04:38:30;;;;;;;;;;;12.40;99.90;;;;;;7334494;19;110449;-68
2022/11/15 04:40:57;;;;;;;;;;;12.50;99.90;;;;;;7335221;19;110658;-67
2022/11/15 04:43:24;;;;;;;;;;;12.50;99.90;;;;;;7341405;19;108654;-67
2022/11/15 04:45:52;;;;;;;;;;;12.50;99.90;;;;;;7336007;19;110113;-67
2022/11/15 04:48:19;;;;;;;;;;;12.50;99.90;;;;;;7334846;19;109782;-67
2022/11/15 04:50:49;;;;;;;;;;;12.50;99.90;;;;;;7334338;19;110305;-67
2022/11/15 04:53:16;;;;;;;;;;;12.50;99.90;;;;;;7333149;19;108999;-67
2022/11/15 04:55:46;;;;;;;;;;;12.50;99.90;;;;;;7334475;19;108289;-68
2022/11/15 04:58:13;;;;;;;;;;;12.50;99.90;;;;;;7334017;19;109071;-67
2022/11/15 05:00:40;;;;;;;;;;;12.50;99.90;;;;;;7332926;19;109219;-68
2022/11/15 05:05:54;;;;;;;;;;;12.40;99.90;;;;;;7340213;19;109423;-67
2022/11/15 05:08:21;;;;;;;;;;;12.50;99.90;;;;;;7333064;19;109733;-67
2022/11/15 05:10:48;;;;;;;;;;;12.50;99.90;;;;;;7332913;19;110202;-67
2022/11/15 05:13:14;;;;;;;;;;;12.50;99.90;;;;;;7333244;19;110356;-68
2022/11/15 05:15:41;;;;;;;;;;;12.50;99.90;;;;;;7332229;19;109354;-68
2022/11/15 05:18:08;;;;;;;;;;;12.40;99.90;;;;;;7332977;19;108332;-67
2022/11/15 05:20:35;;;;;;;;;;;12.40;99.90;;;;;;7332403;19;109132;-67
2022/11/15 05:23:02;;;;;;;;;;;12.50;99.90;;;;;;7333026;19;108888;-67
2022/11/15 05:25:29;;;;;;;;;;;12.40;99.90;;;;;;7332502;19;109573;-68
2022/11/15 05:27:56;;;;;;;;;;;12.40;99.90;;;;;;7339347;19;110264;-68
2022/11/15 05:30:23;;;;;;;;;;;12.40;99.90;;;;;;7331912;19;110012;-67
2022/11/15 05:32:50;;;;;;;;;;;12.40;99.90;;;;;;7330107;19;110110;-67
2022/11/15 05:35:20;;;;;;;;;;;12.40;99.90;;;;;;7333823;19;109885;-68
2022/11/15 05:37:47;;;;;;;;;;;12.40;99.90;;;;;;7340316;19;109214;-67
2022/11/15 05:40:14;;;;;;;;;;;12.40;99.90;;;;;;7339100;19;110202;-68
2022/11/15 05:42:41;;;;;;;;;;;12.40;99.90;;;;;;7340116;19;108786;-68
2022/11/15 05:45:09;;;;;;;;;;;12.40;99.90;;;;;;7339162;19;109143;-68
2022/11/15 05:47:37;;;;;;;;;;;12.30;99.90;;;;;;7338990;19;110077;-67
2022/11/15 05:50:04;;;;;;;;;;;12.30;99.90;;;;;;7343897;19;108958;-70
2022/11/15 05:52:33;;;;;;;;;;;12.30;99.90;;;;;;7339653;19;109181;-67
2022/11/15 05:55:01;;;;;;;;;;;12.30;99.90;;;;;;7339985;19;111097;-72
2022/11/15 05:57:28;;;;;;;;;;;12.30;99.90;;;;;;7340647;19;109090;-68
2022/11/15 05:59:55;;;;;;;;;;;12.30;99.90;;;;;;7339493;19;110083;-71
2022/11/15 06:02:22;;;;;;;;;;;12.20;99.90;;;;;;7341431;19;108581;-70
2022/11/15 06:04:49;;;;;;;;;;;12.20;99.90;;;;;;7337675;19;108347;-68
2022/11/15 06:07:16;;;;;;;;;;;12.20;99.90;;;;;;7341605;19;109887;-73
2022/11/15 06:09:43;;;;;;;;;;;12.20;99.90;;;;;;7342827;19;108902;-69
2022/11/15 06:12:09;;;;;;;;;;;12.20;99.90;;;;;;7337975;19;110198;-68
2022/11/15 06:14:36;;;;;;;;;;;12.20;99.90;;;;;;7338077;19;109360;-73
2022/11/15 06:17:03;;;;;;;;;;;12.20;99.90;;;;;;7338642;19;109033;-69
2022/11/15 06:19:37;;;;;;;;;;;12.10;99.90;;;;;;7339744;19;110177;-72
2022/11/15 06:22:04;;;;;;;;;;;12.10;99.90;;;;;;7336369;19;110789;-70
2022/11/15 06:24:31;;;;;;;;;;;12.10;99.90;;;;;;7334214;19;108427;-70
2022/11/15 06:26:58;;;;;;;;;;;12.10;99.90;;;;;;7340595;19;109228;-71
2022/11/15 06:29:25;;;;;;;;;;;12.10;99.90;;;;;;7335412;19;108891;-69
2022/11/15 06:31:52;;;;;;;;;;;12.10;99.90;;;;;;7343483;19;109629;-73
2022/11/15 06:34:19;;;;;;;;;;;12.10;99.90;;;;;;7338752;19;108863;-67
2022/11/15 06:36:46;;;;;;;;;;;12.10;99.90;;;;;;7337771;19;109465;-67
2022/11/15 06:39:13;;;;;;;;;;;12.00;99.90;;;;;;7337244;19;109436;-68
2022/11/15 06:41:40;;;;;;;;;;;12.00;99.90;;;;;;7338182;19;109330;-67
2022/11/15 06:44:07;;;;;;;;;;;12.00;99.90;;;;;;7339023;19;109821;-67
2022/11/15 06:46:34;;;;;;;;;;;12.00;99.90;;;;;;7337654;19;110177;-68
2022/11/15 06:49:01;;;;;;;;;;;12.00;99.90;;;;;;7338324;19;109249;-68
2022/11/15 06:51:35;;;;;;;;;;;11.90;99.90;;;;;;7337363;19;109661;-67
2022/11/15 06:54:01;;;;;;;;;;;11.90;99.90;;;;;;7344425;19;109878;-67
2022/11/15 06:56:28;;;;;;;;;;;11.90;99.90;;;;;;7337954;19;110360;-67
2022/11/15 06:58:55;;;;;;;;;;;11.90;99.90;;;;;;7339331;19;110696;-67
2022/11/15 07:01:22;;;;;;;;;;;11.90;99.90;;;;;;7338511;19;109542;-68
2022/11/15 07:03:49;;;;;;;;;;;11.90;99.90;;;;;;7336866;19;109708;-68
2022/11/15 07:06:16;;;;;;;;;;;11.90;99.90;;;;;;7337600;19;109191;-67
2022/11/15 07:08:43;;;;;;;;;;;11.80;99.90;;;;;;7338078;19;108902;-67
2022/11/15 07:11:10;;;;;;;;;;;11.80;99.90;;;;;;7337305;19;110360;-67
2022/11/15 07:13:37;;;;;;;;;;;11.70;99.90;;;;;;7337159;19;109356;-67
2022/11/15 07:16:05;;;;;;;;;;;11.70;99.90;;;;;;7343546;19;108403;-67
2022/11/15 07:18:35;;;;;;;;;;;11.60;99.90;;;;;;7338452;19;109342;-67
2022/11/15 07:21:03;;;;;;;;;;;11.60;99.90;;;;;;7337640;19;108838;-67
2022/11/15 07:23:30;;;;;;;;;;;11.50;99.90;;;;;;7338789;19;108754;-67
2022/11/15 07:25:58;;;;;;;;;;;11.50;99.90;;;;;;7338463;19;109718;-67
2022/11/15 07:28:27;;;;;;;;;;;11.50;99.90;;;;;;7335683;19;109421;-67
2022/11/15 07:30:54;;;;;;;;;;;11.50;99.90;;;;;;7335463;19;109053;-67
2022/11/15 07:33:21;;;;;;;;;;;11.40;99.90;;;;;;7337130;19;109901;-67
2022/11/15 07:35:48;;;;;;;;;;;11.40;99.90;;;;;;7338399;19;109687;-68
2022/11/15 07:38:15;;;;;;;;;;;11.40;99.90;;;;;;7342874;19;109676;-67
2022/11/15 07:40:42;;;;;;;;;;;11.30;99.90;;;;;;7335900;19;108547;-67
2022/11/15 07:43:09;;;;;;;;;;;11.30;99.90;;;;;;7337831;19;109737;-67
2022/11/15 07:45:40;;;;;;;;;;;11.30;99.90;;;;;;7335301;19;109299;-67
2022/11/15 07:48:07;;;;;;;;;;;11.20;99.90;;;;;;7336535;19;108223;-67
2022/11/15 07:50:34;;;;;;;;;;;11.20;99.90;;;;;;7336089;19;109485;-67
2022/11/15 07:53:01;;;;;;;;;;;11.10;99.90;;;;;;7335979;19;109594;-67
2022/11/15 07:55:29;;;;;;;;;;;11.10;99.90;;;;;;7336915;19;110073;-67
2022/11/15 07:58:03;;;;;;;;;;;11.10;99.90;;;;;;7342986;19;108927;-67
2022/11/15 08:00:30;;;;;;;;;;;11.10;99.90;;;;;;7335683;19;109403;-67
2022/11/15 08:03:04;;;;;;;;;;;11.10;99.90;;;;;;7336602;19;109436;-67
2022/11/15 08:05:31;;;;;;;;;;;11.20;99.90;;;;;;7337888;19;110369;-67
2022/11/15 08:07:58;;;;;;;;;;;11.20;99.90;;;;;;7343132;19;108903;-67
2022/11/15 08:10:25;;;;;;;;;;;11.20;99.90;;;;;;7340304;19;110292;-67
2022/11/15 08:13:05;;;;;;;;;;;11.30;99.90;;;;;;7339490;19;109763;-67
2022/11/15 08:15:33;;;;;;;;;;;11.30;99.90;;;;;;7337428;19;108394;-67
2022/11/15 08:18:01;;;;;;;;;;;11.40;99.90;;;;;;7335898;19;109923;-67
2022/11/15 08:20:29;;;;;;;;;;;11.40;99.90;;;;;;7343092;19;110913;-67
2022/11/15 08:23:00;;;;;;;;;;;11.40;99.90;;;;;;7336672;19;109616;-67
2022/11/15 08:25:28;;;;;;;;;;;11.40;99.90;;;;;;7336309;19;108862;-67
2022/11/15 08:27:56;;;;;;;;;;;11.40;99.90;;;;;;7338119;19;108440;-67
2022/11/15 08:30:23;;;;;;;;;;;11.50;99.90;;;;;;7335532;19;109877;-67
2022/11/15 08:32:51;;;;;;;;;;;11.50;99.90;;;;;;7333408;19;112557;-67
2022/11/15 08:35:19;;;;;;;;;;;11.50;99.90;;;;;;7336271;19;108445;-67
2022/11/15 08:37:53;;;;;;;;;;;11.60;99.90;;;;;;7337047;19;109234;-67
2022/11/15 08:40:20;;;;;;;;;;;11.60;99.90;;;;;;7334723;19;109867;-67
2022/11/15 08:42:47;;;;;;;;;;;11.70;99.90;;;;;;7338360;19;109620;-67
2022/11/15 08:45:14;;;;;;;;;;;11.70;99.90;;;;;;7335633;19;109949;-67
2022/11/15 08:47:41;;;;;;;;;;;11.80;99.90;;;;;;7334359;19;109420;-67
2022/11/15 08:50:08;;;;;;;;;;;11.80;99.90;;;;;;7336448;19;110765;-67
2022/11/15 08:52:35;;;;;;;;;;;11.90;99.90;;;;;;7335148;19;110867;-67
2022/11/15 08:55:02;;;;;;;;;;;12.00;99.90;;;;;;7335992;19;109209;-67
2022/11/15 08:57:30;;;;;;;;;;;12.00;99.90;;;;;;7335193;19;108846;-67
2022/11/15 08:59:57;;;;;;;;;;;12.10;99.90;;;;;;7333338;19;109190;-67
2022/11/15 09:02:24;;;;;;;;;;;12.10;99.90;;;;;;7334901;19;109135;-67
2022/11/15 09:04:51;;;;;;;;;;;12.10;99.90;;;;;;7341705;19;108866;-67
2022/11/15 09:07:17;;;;;;;;;;;12.00;99.90;;;;;;7333815;19;108820;-67
2022/11/15 09:09:44;;;;;;;;;;;12.00;99.90;;;;;;7331247;19;109260;-67
2022/11/15 09:12:11;;;;;;;;;;;12.10;99.90;;;;;;7340400;19;112193;-67
2022/11/15 09:14:38;;;;;;;;;;;12.10;99.90;;;;;;7338911;19;109945;-67
2022/11/15 09:17:08;;;;;;;;;;;12.20;99.90;;;;;;7342738;19;111657;-67
2022/11/15 09:19:36;;;;;;;;;;;12.20;99.90;;;;;;7340935;19;115052;-67
2022/11/15 09:22:05;;;;;;;;;;;12.30;99.90;;;;;;7342938;19;108486;-67
2022/11/15 09:24:32;;;;;;;;;;;12.30;99.90;;;;;;7341140;19;109166;-67
2022/11/15 09:26:59;;;;;;;;;;;12.30;99.90;;;;;;7345946;19;109585;-67
2022/11/15 09:29:26;;;;;;;;;;;12.30;99.90;;;;;;7340755;19;109533;-68
2022/11/15 09:31:52;;;;;;;;;;;12.40;99.90;;;;;;7339450;19;109679;-69
2022/11/15 09:34:20;;;;;;;;;;;12.40;99.90;;;;;;7341898;19;109459;-67
2022/11/15 09:36:47;;;;;;;;;;;12.40;99.90;;;;;;7337807;19;111436;-67
2022/11/15 09:39:14;;;;;;;;;;;12.40;99.90;;;;;;7340532;19;109222;-67
2022/11/15 09:41:53;;;;;;;;;;;12.50;99.90;;;;;;7340829;19;109580;-67
2022/11/15 09:44:29;;;;;;;;;;;12.50;99.90;;;;;;7340376;19;112534;-67
2022/11/15 09:46:56;;;;;;;;;;;12.60;99.90;;;;;;7338689;19;110369;-67
2022/11/15 09:49:23;;;;;;;;;;;12.70;99.90;;;;;;7346835;19;108586;-67
2022/11/15 09:51:51;;;;;;;;;;;12.70;99.90;;;;;;7339615;19;110065;-67
2022/11/15 09:54:27;;;;;;;;;;;12.80;99.90;;;;;;7340385;19;109506;-67
2022/11/15 09:57:16;;;;;;;;;;;12.90;99.90;;;;;;7340967;19;110290;-67
2022/11/15 09:59:48;;;;;;;;;;;12.90;99.90;;;;;;7338008;19;110667;-68
2022/11/15 10:02:15;;;;;;;;;;;13.00;99.90;;;;;;7339845;19;109451;-67
2022/11/15 10:04:42;;;;;;;;;;;13.00;99.90;;;;;;7339802;19;109475;-67
2022/11/15 10:07:12;;;;;;;;;;;13.10;99.90;;;;;;7337729;19;110264;-67
2022/11/15 10:09:44;;;;;;;;;;;13.20;99.90;;;;;;7346253;19;108737;-67
2022/11/15 10:12:13;;;;;;;;;;;13.30;99.90;;;;;;7339691;19;110287;-67
2022/11/15 10:14:40;;;;;;;;;;;13.30;99.90;;;;;;7339811;19;109388;-67
2022/11/15 10:17:36;;;;;;;;;;;13.40;99.90;;;;;;7340754;19;111056;-67
2022/11/15 10:20:10;;;;;;;;;;;13.50;99.90;;;;;;7340491;19;114176;-67
2022/11/15 10:22:44;;;;;;;;;;;13.60;99.90;;;;;;7337866;19;108778;-67
2022/11/15 10:25:12;;;;;;;;;;;13.70;99.90;;;;;;7341609;19;109255;-67
2022/11/15 10:27:40;;;;;;;;;;;13.70;99.90;;;;;;7338590;19;110049;-67
2022/11/15 10:30:13;;;;;;;;;;;13.80;99.90;;;;;;7339798;19;108972;-67
2022/11/15 10:32:41;;;;;;;;;;;13.80;99.90;;;;;;7341459;19;108695;-67
2022/11/15 10:35:23;;;;;;;;;;;13.80;99.90;;;;;;7340858;19;112500;-67
2022/11/15 10:37:50;;;;;;;;;;;13.80;99.90;;;;;;7338678;19;109184;-67
2022/11/15 10:40:22;;;;;;;;;;;13.80;99.90;;;;;;7337303;19;109671;-67
2022/11/15 10:43:04;;;;;;;;;;;13.80;99.90;;;;;;7338076;19;109051;-67
2022/11/15 10:45:32;;;;;;;;;;;13.80;99.90;;;;;;7336662;19;109007;-67
2022/11/15 10:48:14;;;;;;;;;;;13.80;99.90;;;;;;7339141;19;109298;-67
2022/11/15 10:50:42;;;;;;;;;;;13.80;99.90;;;;;;7337909;19;108832;-67
2022/11/15 10:53:33;;;;;;;;;;;13.80;99.90;;;;;;7338229;19;109356;-67
2022/11/15 10:56:02;;;;;;;;;;;13.90;99.90;;;;;;7343830;19;109376;-67
2022/11/15 10:58:32;;;;;;;;;;;13.90;99.90;;;;;;7337579;19;109302;-67
2022/11/15 11:01:16;;;;;;;;;;;13.90;99.90;;;;;;7338505;19;111421;-74
2022/11/15 11:03:44;;;;;;;;;;;14.00;99.90;;;;;;7338835;19;108843;-76
2022/11/15 11:06:15;;;;;;;;;;;14.10;99.90;;;;;;7337504;19;108738;-74
2022/11/15 11:08:57;;;;;;;;;;;14.10;99.90;;;;;;7336806;19;110236;-76
2022/11/15 11:11:24;;;;;;;;;;;14.20;99.90;;;;;;7337301;19;108327;-74
2022/11/15 11:13:51;;;;;;;;;;;14.30;99.90;;;;;;7338958;19;108276;-77
2022/11/15 11:16:21;;;;;;;;;;;14.30;99.90;;;;;;7336143;19;109186;-77
2022/11/15 11:19:03;;;;;;;;;;;14.30;99.90;;;;;;7341731;19;108911;-74
2022/11/15 11:21:43;;;;;;;;;;;14.40;99.90;;;;;;7337163;19;109852;-74
2022/11/15 11:24:32;;;;;;;;;;;14.40;99.90;;;;;;7337541;19;110519;-75
2022/11/15 11:27:18;;;;;;;;;;;14.40;99.90;;;;;;7337789;19;108526;-67
2022/11/15 11:30:03;;;;;;;;;;;14.40;99.90;;;;;;7336036;19;110436;-69
2022/11/15 11:32:33;;;;;;;;;;;14.30;99.90;;;;;;7335415;19;110843;-67
2022/11/15 11:35:12;;;;;;;;;;;14.30;99.90;;;;;;7336208;19;109150;-67
2022/11/15 11:37:47;;;;;;;;;;;14.30;99.90;;;;;;7337203;19;110823;-68
2022/11/15 11:40:24;;;;;;;;;;;14.20;99.90;;;;;;7336804;19;108969;-67
2022/11/15 11:43:09;;;;;;;;;;;14.20;99.90;;;;;;7342851;19;109283;-67
2022/11/15 11:45:36;;;;;;;;;;;14.30;99.90;;;;;;7335517;19;108927;-67
2022/11/15 11:48:03;;;;;;;;;;;14.40;99.90;;;;;;7336972;19;110369;-67
2022/11/15 11:50:31;;;;;;;;;;;14.40;99.90;;;;;;7334948;19;114550;-67
2022/11/15 11:52:58;;;;;;;;;;;14.40;99.90;;;;;;7335812;19;110052;-68
2022/11/15 11:55:37;;;;;;;;;;;14.40;99.90;;;;;;7335449;19;109129;-67
2022/11/15 11:58:04;;;;;;;;;;;14.40;99.90;;;;;;7336200;19;110382;-67
2022/11/15 12:00:34;;;;;;;;;;;14.40;99.90;;;;;;7335307;19;108883;-67
2022/11/15 12:03:01;;;;;;;;;;;14.40;99.90;;;;;;7333526;19;109363;-67
2022/11/15 12:05:37;;;;;;;;;;;14.40;99.90;;;;;;7340233;19;110619;-68
2022/11/15 12:08:19;;;;;;;;;;;14.40;99.90;;;;;;7334531;19;110076;-67
2022/11/15 12:10:48;;;;;;;;;;;14.40;99.90;;;;;;7333880;19;109328;-67
2022/11/15 12:13:21;;;;;;;;;;;14.40;99.90;;;;;;7337349;19;110704;-67
2022/11/15 12:15:56;;;;;;;;;;;14.40;99.90;;;;;;7333458;19;109306;-67
2022/11/15 12:18:23;;;;;;;;;;;14.30;99.90;;;;;;7335878;19;109271;-67
2022/11/15 12:20:55;;;;;;;;;;;14.40;99.90;;;;;;7334283;19;110483;-67
2022/11/15 12:23:34;;;;;;;;;;;14.40;99.90;;;;;;7333110;19;108922;-67
2022/11/15 12:26:06;;;;;;;;;;;14.30;99.90;;;;;;7339754;19;109188;-67
2022/11/15 12:28:48;;;;;;;;;;;14.30;99.90;;;;;;7334481;19;109589;-67
2022/11/15 12:31:41;;;;;;;;;;;14.30;99.90;;;;;;7333317;19;109382;-67
2022/11/15 12:34:20;;;;;;;;;;;14.20;99.90;;;;;;7331695;19;108234;-67
2022/11/15 12:36:48;;;;;;;;;;;14.20;99.90;;;;;;7332218;19;108892;-67
2022/11/15 12:39:15;;;;;;;;;;;14.20;99.90;;;;;;7334198;19;109233;-67
2022/11/15 12:41:43;;;;;;;;;;;14.20;99.90;;;;;;7333269;19;108745;-67
2022/11/15 12:44:11;;;;;;;;;;;14.10;99.90;;;;;;7334790;19;109739;-67
2022/11/15 12:46:38;;;;;;;;;;;14.10;99.90;;;;;;7333276;19;111241;-67
2022/11/15 12:49:10;;;;;;;;;;;14.10;99.90;;;;;;7339703;19;108665;-67
2022/11/15 12:51:43;;;;;;;;;;;14.20;99.90;;;;;;7331453;19;110038;-67
2022/11/15 12:54:22;;;;;;;;;;;14.10;99.90;;;;;;7334528;19;111068;-67
2022/11/15 12:57:07;;;;;;;;;;;14.10;99.90;;;;;;7334803;19;109897;-67
2022/11/15 12:59:54;;;;;;;;;;;14.10;99.90;;;;;;7332497;19;109319;-67
2022/11/15 13:02:23;;;;;;;;;;;14.10;99.90;;;;;;7333398;19;108424;-67
2022/11/15 13:04:50;;;;;;;;;;;14.10;99.90;;;;;;7331760;19;108268;-67
2022/11/15 13:07:33;;;;;;;;;;;14.10;99.90;;;;;;7333669;19;110602;-67
2022/11/15 13:10:00;;;;;;;;;;;14.10;99.90;;;;;;7333691;19;109185;-67
2022/11/15 13:12:27;;;;;;;;;;;14.40;99.90;;;;;;7341412;19;109158;-67
2022/11/15 13:14:56;;;;;;;;;;;14.40;99.90;;;;;;7338353;19;108339;-67
2022/11/15 13:17:30;;;;;;;;;;;14.40;99.90;;;;;;7335443;19;110602;-68
2022/11/15 13:20:23;;;;;;;;;;;14.40;99.90;;;;;;7334181;19;109337;-67
2022/11/15 13:22:51;;;;;;;;;;;14.50;99.90;;;;;;7332643;19;109169;-67
2022/11/15 13:25:38;;;;;;;;;;;14.60;99.90;;;;;;7333482;19;108824;-67
2022/11/15 13:28:08;;;;;;;;;;;14.60;99.90;;;;;;7333344;19;109852;-67
2022/11/15 13:30:36;;;;;;;;;;;14.50;99.90;;;;;;7333843;19;109543;-66
2022/11/15 13:33:18;;;;;;;;;;;14.50;99.90;;;;;;7331365;19;109477;-67
2022/11/15 13:35:46;;;;;;;;;;;14.50;99.90;;;;;;7340982;19;109101;-66
2022/11/15 13:38:32;;;;;;;;;;;14.50;99.90;;;;;;7335459;19;109935;-67
2022/11/15 13:41:11;;;;;;;;;;;14.60;99.90;;;;;;7337094;19;109128;-66
2022/11/15 13:43:38;;;;;;;;;;;14.70;99.90;;;;;;7334635;19;108678;-66
2022/11/15 13:46:08;;;;;;;;;;;14.70;99.90;;;;;;7337238;19;108936;-67
2022/11/15 13:48:34;;;;;;;;;;;14.60;99.90;;;;;;7335108;19;110273;-67
2022/11/15 13:51:08;;;;;;;;;;;14.80;99.90;;;;;;7335899;19;109016;-67
2022/11/15 13:53:36;;;;;;;;;;;14.60;99.90;;;;;;7329647;19;109093;-67
2022/11/15 13:56:03;;;;;;;;;;;14.60;99.90;;;;;;7333499;19;113130;-67
2022/11/15 13:58:30;;;;;;;;;;;14.50;99.90;;;;;;7343131;19;108410;-67
2022/11/15 14:01:02;;;;;;;;;;;14.40;99.90;;;;;;7339641;19;109289;-67
2022/11/15 14:03:33;;;;;;;;;;;14.40;99.90;;;;;;7338322;19;108667;-67
2022/11/15 14:06:06;;;;;;;;;;;14.40;99.90;;;;;;7343507;19;109529;-67
2022/11/15 14:08:34;;;;;;;;;;;14.40;99.90;;;;;;7342494;19;109425;-67
2022/11/15 14:11:05;;;;;;;;;;;14.40;99.90;;;;;;7339079;19;110630;-67
2022/11/15 14:13:32;;;;;;;;;;;14.40;99.90;;;;;;7335620;19;111137;-67
2022/11/15 14:16:16;;;;;;;;;;;14.50;99.90;;;;;;7341644;19;109294;-67
2022/11/15 14:18:47;;;;;;;;;;;14.60;99.90;;;;;;7340617;19;108711;-67
2022/11/15 14:21:14;;;;;;;;;;;14.60;99.90;;;;;;7346310;19;109555;-67
2022/11/15 14:23:41;;;;;;;;;;;14.60;99.90;;;;;;7341086;19;108467;-67
2022/11/15 14:26:25;;;;;;;;;;;14.60;99.90;;;;;;7340251;19;108957;-67
2022/11/15 14:28:52;;;;;;;;;;;14.70;99.90;;;;;;7339706;19;109210;-67
2022/11/15 14:31:19;;;;;;;;;;;14.70;99.90;;;;;;7341558;19;109247;-67
2022/11/15 14:33:46;;;;;;;;;;;14.80;99.90;;;;;;7339602;19;108523;-67
2022/11/15 14:36:14;;;;;;;;;;;14.80;99.90;;;;;;7343416;19;109276;-67